createdAt,value
2017-12-26T00:00:55.676Z,5.38
2017-12-26T00:01:55.666Z,5.53
2017-12-26T00:02:55.641Z,5.51
2017-12-26T00:03:55.619Z,5.46
2017-12-26T00:04:55.596Z,5.39
2017-12-26T00:05:55.579Z,5.43
2017-12-26T00:06:55.566Z,5.43
2017-12-26T00:07:55.536Z,5.45
2017-12-26T00:08:55.519Z,5.46
2017-12-26T00:09:55.496Z,5.43
2017-12-26T00:10:55.481Z,5.46
2017-12-26T00:11:55.459Z,5.35
2017-12-26T00:12:55.429Z,5.40
2017-12-26T00:13:55.428Z,5.39
2017-12-26T00:14:55.392Z,5.46
2017-12-26T00:15:55.366Z,5.51
2017-12-26T00:16:55.347Z,5.39
2017-12-26T00:17:55.330Z,5.43
2017-12-26T00:18:55.310Z,5.39
2017-12-26T00:19:55.284Z,5.43
2017-12-26T00:20:55.260Z,5.36
2017-12-26T00:21:55.239Z,5.42
2017-12-26T00:22:55.223Z,5.35
2017-12-26T00:23:55.200Z,5.35
2017-12-26T00:24:55.179Z,5.35
2017-12-26T00:25:55.156Z,5.28
2017-12-26T00:26:55.137Z,5.27
2017-12-26T00:27:55.121Z,5.35
2017-12-26T00:28:55.095Z,5.36
2017-12-26T00:29:55.080Z,5.33
2017-12-26T00:30:55.057Z,5.33
2017-12-26T00:31:55.043Z,5.25
2017-12-26T00:32:55.019Z,5.28
2017-12-26T00:33:54.998Z,5.25
2017-12-26T00:34:54.972Z,5.25
2017-12-26T00:35:54.952Z,5.21
2017-12-26T00:36:54.929Z,5.22
2017-12-26T00:37:54.906Z,5.24
2017-12-26T00:38:54.891Z,5.25
2017-12-26T00:39:54.868Z,5.22
2017-12-26T00:40:54.846Z,5.12
2017-12-26T00:41:54.830Z,5.13
2017-12-26T00:42:54.809Z,5.13
2017-12-26T00:43:54.792Z,5.18
2017-12-26T00:44:54.763Z,5.13
2017-12-26T00:45:54.740Z,5.18
2017-12-26T00:46:54.719Z,5.13
2017-12-26T00:47:54.702Z,5.17
2017-12-26T00:48:54.676Z,5.15
2017-12-26T00:49:54.661Z,5.03
2017-12-26T00:50:54.637Z,5.06
2017-12-26T00:51:54.612Z,5.02
2017-12-26T00:52:54.600Z,5.02
2017-12-26T00:53:54.571Z,5.00
2017-12-26T00:54:54.554Z,5.00
2017-12-26T00:55:54.535Z,4.97
2017-12-26T00:56:54.520Z,4.91
2017-12-26T00:57:54.488Z,4.96
2017-12-26T00:58:54.469Z,4.96
2017-12-26T00:59:54.446Z,4.89
2017-12-26T01:00:54.427Z,4.78
2017-12-26T01:01:54.408Z,4.78
2017-12-26T01:02:54.386Z,4.84
2017-12-26T01:03:54.377Z,4.80
2017-12-26T01:04:54.391Z,4.80
2017-12-26T01:05:54.330Z,4.69
2017-12-26T01:06:54.304Z,4.78
2017-12-26T01:07:54.280Z,4.72
2017-12-26T01:08:54.259Z,4.82
2017-12-26T01:09:54.240Z,4.63
2017-12-26T01:10:54.215Z,4.66
2017-12-26T01:11:54.201Z,4.69
2017-12-26T01:12:54.180Z,4.65
2017-12-26T01:13:54.155Z,4.69
2017-12-26T01:14:54.129Z,4.70
2017-12-26T01:15:54.113Z,4.67
2017-12-26T01:16:54.091Z,4.60
2017-12-26T01:17:54.069Z,4.67
2017-12-26T01:18:54.047Z,4.59
2017-12-26T01:19:54.027Z,4.69
2017-12-26T01:20:54.009Z,4.63
2017-12-26T01:21:53.991Z,4.60
2017-12-26T01:22:53.966Z,4.59
2017-12-26T01:23:53.950Z,4.66
2017-12-26T01:24:53.918Z,4.60
2017-12-26T01:25:53.900Z,4.59
2017-12-26T01:26:53.878Z,4.54
2017-12-26T01:27:53.858Z,4.52
2017-12-26T01:28:53.836Z,4.55
2017-12-26T01:29:53.818Z,4.52
2017-12-26T01:30:53.796Z,4.54
2017-12-26T01:31:53.772Z,4.47
2017-12-26T01:32:53.751Z,4.50
2017-12-26T01:33:53.733Z,4.52
2017-12-26T01:34:53.710Z,4.44
2017-12-26T01:35:53.688Z,4.48
2017-12-26T01:36:53.669Z,4.50
2017-12-26T01:37:53.646Z,4.54
2017-12-26T01:38:53.628Z,4.44
2017-12-26T01:39:53.608Z,4.50
2017-12-26T01:40:53.582Z,4.33
2017-12-26T01:41:53.565Z,4.44
2017-12-26T01:42:53.546Z,4.40
2017-12-26T01:43:53.520Z,4.41
2017-12-26T01:44:53.501Z,4.44
2017-12-26T01:45:53.479Z,4.42
2017-12-26T01:46:53.456Z,4.42
2017-12-26T01:47:53.438Z,4.37
2017-12-26T01:48:53.415Z,4.29
2017-12-26T01:49:53.396Z,4.30
2017-12-26T01:50:53.375Z,4.37
2017-12-26T01:51:53.352Z,4.36
2017-12-26T01:52:53.336Z,4.26
2017-12-26T01:53:53.308Z,4.30
2017-12-26T01:54:53.297Z,4.34
2017-12-26T01:55:53.264Z,4.26
2017-12-26T01:56:53.242Z,4.27
2017-12-26T01:57:53.229Z,4.23
2017-12-26T01:58:53.201Z,4.27
2017-12-26T01:59:53.180Z,4.32
2017-12-26T02:00:53.159Z,4.29
2017-12-26T02:01:53.139Z,4.18
2017-12-26T02:02:53.115Z,4.24
2017-12-26T02:03:53.099Z,4.29
2017-12-26T02:04:53.078Z,4.20
2017-12-26T02:05:53.053Z,4.24
2017-12-26T02:06:53.031Z,4.24
2017-12-26T02:07:53.011Z,4.16
2017-12-26T02:08:52.986Z,4.23
2017-12-26T02:09:52.973Z,4.23
2017-12-26T02:10:52.951Z,4.23
2017-12-26T02:11:52.927Z,4.22
2017-12-26T02:12:52.906Z,4.26
2017-12-26T02:13:52.888Z,4.23
2017-12-26T02:14:52.860Z,4.12
2017-12-26T02:15:52.849Z,4.24
2017-12-26T02:16:52.821Z,4.20
2017-12-26T02:17:52.808Z,4.11
2017-12-26T02:18:52.774Z,4.14
2017-12-26T02:19:52.757Z,4.06
2017-12-26T02:20:52.733Z,4.05
2017-12-26T02:21:52.718Z,4.02
2017-12-26T02:22:52.698Z,4.12
2017-12-26T02:23:52.677Z,4.09
2017-12-26T02:24:52.654Z,4.02
2017-12-26T02:25:52.631Z,4.04
2017-12-26T02:26:52.615Z,4.04
2017-12-26T02:27:52.588Z,4.11
2017-12-26T02:28:52.570Z,4.04
2017-12-26T02:29:52.544Z,4.00
2017-12-26T02:30:52.530Z,4.05
2017-12-26T02:31:52.506Z,4.00
2017-12-26T02:32:52.487Z,4.04
2017-12-26T02:33:52.477Z,4.08
2017-12-26T02:34:52.441Z,4.02
2017-12-26T02:35:52.426Z,4.04
2017-12-26T02:36:52.400Z,4.06
2017-12-26T02:37:52.377Z,4.05
2017-12-26T02:38:52.358Z,4.00
2017-12-26T02:39:52.340Z,4.06
2017-12-26T02:40:52.316Z,4.05
2017-12-26T02:41:52.347Z,4.02
2017-12-26T02:42:52.274Z,4.05
2017-12-26T02:43:52.253Z,4.05
2017-12-26T02:44:52.228Z,4.11
2017-12-26T02:45:52.207Z,4.02
2017-12-26T02:46:52.190Z,3.98
2017-12-26T02:47:52.167Z,4.05
2017-12-26T02:48:52.147Z,4.02
2017-12-26T02:49:52.123Z,4.06
2017-12-26T02:50:52.102Z,3.98
2017-12-26T02:51:52.083Z,3.93
2017-12-26T02:52:52.069Z,3.98
2017-12-26T02:53:52.049Z,3.88
2017-12-26T02:54:52.020Z,3.91
2017-12-26T02:55:51.999Z,3.90
2017-12-26T02:56:51.982Z,3.90
2017-12-26T02:57:51.958Z,3.91
2017-12-26T02:58:51.939Z,3.98
2017-12-26T02:59:51.918Z,3.94
2017-12-26T03:00:51.894Z,3.94
2017-12-26T03:01:51.886Z,3.98
2017-12-26T03:02:51.854Z,3.94
2017-12-26T03:03:51.830Z,3.98
2017-12-26T03:04:51.814Z,3.93
2017-12-26T03:05:51.793Z,3.90
2017-12-26T03:06:51.768Z,3.96
2017-12-26T03:07:51.752Z,3.91
2017-12-26T03:08:51.728Z,3.87
2017-12-26T03:09:51.703Z,4.04
2017-12-26T03:10:51.687Z,4.05
2017-12-26T03:11:51.662Z,4.04
2017-12-26T03:12:51.639Z,4.12
2017-12-26T03:13:51.627Z,4.16
2017-12-26T03:14:51.604Z,4.20
2017-12-26T03:15:51.584Z,4.15
2017-12-26T03:16:51.559Z,4.16
2017-12-26T03:17:51.536Z,4.16
2017-12-26T03:18:51.517Z,4.29
2017-12-26T03:19:51.497Z,4.24
2017-12-26T03:20:51.473Z,4.26
2017-12-26T03:21:51.453Z,4.29
2017-12-26T03:22:51.434Z,4.26
2017-12-26T03:23:51.419Z,4.34
2017-12-26T03:24:51.388Z,4.34
2017-12-26T03:25:51.377Z,4.42
2017-12-26T03:26:51.349Z,4.52
2017-12-26T03:27:51.331Z,4.40
2017-12-26T03:28:51.304Z,4.58
2017-12-26T03:29:51.287Z,4.59
2017-12-26T03:30:51.276Z,4.66
2017-12-26T03:31:51.259Z,4.60
2017-12-26T03:32:51.220Z,4.63
2017-12-26T03:33:51.202Z,4.58
2017-12-26T03:34:51.183Z,4.72
2017-12-26T03:35:51.156Z,4.75
2017-12-26T03:36:51.137Z,4.82
2017-12-26T03:37:51.120Z,4.86
2017-12-26T03:38:51.093Z,4.97
2017-12-26T03:39:51.074Z,4.94
2017-12-26T03:40:51.061Z,5.00
2017-12-26T03:41:51.028Z,5.06
2017-12-26T03:42:51.008Z,5.00
2017-12-26T03:43:50.986Z,5.09
2017-12-26T03:44:50.964Z,5.18
2017-12-26T03:45:50.948Z,5.09
2017-12-26T03:46:50.926Z,5.18
2017-12-26T03:47:50.906Z,5.25
2017-12-26T03:48:50.887Z,5.39
2017-12-26T03:49:50.858Z,5.31
2017-12-26T03:50:50.839Z,5.45
2017-12-26T03:51:50.818Z,5.43
2017-12-26T03:52:50.799Z,5.51
2017-12-26T03:53:50.776Z,5.56
2017-12-26T03:54:50.754Z,5.46
2017-12-26T03:55:50.735Z,5.56
2017-12-26T03:56:50.713Z,5.54
2017-12-26T03:57:50.695Z,5.54
2017-12-26T03:58:50.670Z,5.67
2017-12-26T03:59:50.655Z,5.58
2017-12-26T04:00:50.628Z,5.61
2017-12-26T04:01:50.608Z,5.67
2017-12-26T04:02:50.587Z,5.71
2017-12-26T04:03:50.569Z,5.74
2017-12-26T04:04:50.545Z,5.76
2017-12-26T04:05:50.524Z,5.72
2017-12-26T04:06:50.497Z,5.74
2017-12-26T04:07:50.477Z,5.74
2017-12-26T04:08:50.461Z,5.79
2017-12-26T04:09:50.441Z,5.79
2017-12-26T04:10:50.420Z,5.79
2017-12-26T04:11:50.398Z,5.83
2017-12-26T04:12:50.370Z,5.83
2017-12-26T04:13:50.355Z,5.83
2017-12-26T04:14:50.331Z,5.83
2017-12-26T04:15:50.315Z,5.91
2017-12-26T04:16:50.290Z,5.86
2017-12-26T04:17:50.267Z,5.93
2017-12-26T04:18:50.248Z,5.91
2017-12-26T04:19:50.230Z,5.90
2017-12-26T04:20:50.204Z,5.97
2017-12-26T04:21:50.187Z,5.99
2017-12-26T04:22:50.172Z,6.01
2017-12-26T04:23:50.141Z,6.03
2017-12-26T04:24:50.125Z,6.01
2017-12-26T04:25:50.101Z,5.97
2017-12-26T04:26:50.081Z,5.96
2017-12-26T04:27:50.059Z,6.01
2017-12-26T04:28:50.040Z,6.03
2017-12-26T04:29:50.024Z,6.03
2017-12-26T04:30:49.999Z,6.03
2017-12-26T04:31:49.975Z,5.99
2017-12-26T04:32:49.959Z,5.94
2017-12-26T04:33:49.938Z,6.06
2017-12-26T04:34:49.911Z,6.03
2017-12-26T04:35:49.892Z,6.08
2017-12-26T04:36:49.874Z,6.04
2017-12-26T04:37:49.847Z,6.15
2017-12-26T04:38:49.824Z,6.09
2017-12-26T04:39:49.807Z,6.08
2017-12-26T04:40:49.786Z,6.15
2017-12-26T04:41:49.765Z,6.18
2017-12-26T04:42:49.749Z,6.18
2017-12-26T04:43:49.728Z,6.18
2017-12-26T04:44:49.705Z,6.18
2017-12-26T04:45:49.692Z,6.17
2017-12-26T04:46:49.665Z,6.21
2017-12-26T04:47:49.639Z,6.18
2017-12-26T04:48:49.618Z,6.17
2017-12-26T04:49:49.597Z,6.25
2017-12-26T04:50:49.579Z,6.15
2017-12-26T04:51:49.554Z,6.15
2017-12-26T04:52:49.538Z,6.34
2017-12-26T04:53:49.515Z,6.11
2017-12-26T04:54:49.492Z,6.14
2017-12-26T04:55:49.475Z,6.28
2017-12-26T04:56:49.451Z,6.37
2017-12-26T04:57:49.433Z,6.34
2017-12-26T04:58:49.408Z,6.37
2017-12-26T04:59:49.388Z,6.36
2017-12-26T05:00:49.377Z,6.36
2017-12-26T05:01:49.348Z,6.28
2017-12-26T05:02:49.332Z,6.31
2017-12-26T05:03:49.308Z,6.41
2017-12-26T05:04:49.287Z,6.43
2017-12-26T05:05:49.265Z,6.38
2017-12-26T05:06:49.244Z,6.49
2017-12-26T05:07:49.228Z,6.51
2017-12-26T05:08:49.205Z,6.40
2017-12-26T05:09:49.185Z,6.59
2017-12-26T05:10:49.159Z,6.66
2017-12-26T05:11:49.140Z,6.55
2017-12-26T05:12:49.118Z,6.55
2017-12-26T05:13:49.098Z,6.56
2017-12-26T05:14:49.079Z,6.58
2017-12-26T05:15:49.058Z,6.64
2017-12-26T05:16:49.039Z,6.66
2017-12-26T05:17:49.015Z,6.77
2017-12-26T05:18:48.996Z,6.71
2017-12-26T05:19:48.974Z,6.70
2017-12-26T05:20:48.959Z,6.69
2017-12-26T05:21:48.937Z,6.70
2017-12-26T05:22:48.912Z,6.66
2017-12-26T05:23:48.892Z,6.59
2017-12-26T05:24:48.872Z,6.58
2017-12-26T05:25:48.854Z,6.58
2017-12-26T05:26:48.828Z,6.44
2017-12-26T05:27:48.809Z,6.43
2017-12-26T05:28:48.790Z,6.49
2017-12-26T05:29:48.777Z,6.55
2017-12-26T05:30:48.748Z,6.58
2017-12-26T05:31:48.730Z,6.62
2017-12-26T05:32:48.707Z,6.64
2017-12-26T05:33:48.690Z,6.69
2017-12-26T05:34:48.668Z,6.77
2017-12-26T05:35:48.647Z,6.84
2017-12-26T05:36:48.625Z,6.80
2017-12-26T05:37:48.599Z,6.80
2017-12-26T05:38:48.582Z,6.74
2017-12-26T05:39:48.558Z,6.80
2017-12-26T05:40:48.542Z,6.73
2017-12-26T05:41:48.522Z,6.77
2017-12-26T05:42:48.499Z,6.85
2017-12-26T05:43:48.475Z,6.87
2017-12-26T05:44:48.457Z,6.92
2017-12-26T05:45:48.437Z,6.85
2017-12-26T05:46:48.418Z,6.81
2017-12-26T05:47:48.397Z,6.84
2017-12-26T05:48:48.373Z,6.84
2017-12-26T05:49:48.354Z,6.81
2017-12-26T05:50:48.331Z,6.88
2017-12-26T05:51:48.317Z,6.74
2017-12-26T05:52:48.290Z,6.84
2017-12-26T05:53:48.271Z,7.05
2017-12-26T05:54:48.252Z,7.06
2017-12-26T05:55:48.233Z,7.05
2017-12-26T05:56:48.215Z,7.09
2017-12-26T05:57:48.189Z,7.10
2017-12-26T05:58:48.171Z,7.13
2017-12-26T05:59:48.148Z,7.16
2017-12-26T06:00:48.127Z,7.16
2017-12-26T06:01:48.103Z,7.03
2017-12-26T06:02:48.085Z,7.17
2017-12-26T06:03:48.068Z,7.09
2017-12-26T06:04:48.047Z,7.07
2017-12-26T06:05:48.024Z,7.12
2017-12-26T06:06:48.017Z,7.13
2017-12-26T06:07:47.992Z,7.16
2017-12-26T06:08:47.959Z,7.17
2017-12-26T06:09:47.945Z,7.17
2017-12-26T06:10:47.921Z,7.13
2017-12-26T06:11:47.900Z,7.10
2017-12-26T06:12:47.878Z,7.17
2017-12-26T06:13:47.860Z,7.03
2017-12-26T06:14:47.839Z,7.12
2017-12-26T06:15:47.819Z,7.21
2017-12-26T06:16:47.800Z,7.30
2017-12-26T06:17:47.781Z,7.28
2017-12-26T06:18:47.759Z,7.24
2017-12-26T06:19:47.742Z,7.27
2017-12-26T06:20:47.720Z,7.31
2017-12-26T06:21:47.701Z,7.24
2017-12-26T06:22:47.679Z,7.27
2017-12-26T06:23:47.659Z,7.27
2017-12-26T06:24:47.637Z,7.31
2017-12-26T06:25:47.621Z,7.25
2017-12-26T06:26:47.599Z,7.31
2017-12-26T06:27:47.580Z,7.27
2017-12-26T06:28:47.567Z,7.27
2017-12-26T06:29:47.538Z,7.24
2017-12-26T06:30:47.514Z,7.31
2017-12-26T06:31:47.493Z,7.32
2017-12-26T06:32:47.478Z,7.30
2017-12-26T06:33:47.452Z,7.30
2017-12-26T06:34:47.431Z,7.34
2017-12-26T06:35:47.413Z,7.37
2017-12-26T06:36:47.388Z,7.42
2017-12-26T06:37:47.366Z,7.35
2017-12-26T06:38:47.348Z,7.35
2017-12-26T06:39:47.330Z,7.39
2017-12-26T06:40:47.308Z,7.43
2017-12-26T06:41:47.287Z,7.35
2017-12-26T06:42:47.268Z,7.31
2017-12-26T06:43:47.247Z,7.27
2017-12-26T06:44:47.228Z,7.23
2017-12-26T06:45:47.206Z,7.28
2017-12-26T06:46:47.189Z,7.15
2017-12-26T06:47:47.171Z,7.12
2017-12-26T06:48:47.144Z,7.16
2017-12-26T06:49:47.125Z,7.07
2017-12-26T06:50:47.105Z,7.03
2017-12-26T06:51:47.089Z,7.02
2017-12-26T06:52:47.065Z,7.03
2017-12-26T06:53:47.040Z,7.10
2017-12-26T06:54:47.025Z,7.17
2017-12-26T06:55:47.002Z,7.07
2017-12-26T06:56:46.985Z,7.05
2017-12-26T06:57:46.959Z,7.03
2017-12-26T06:58:46.940Z,7.03
2017-12-26T06:59:46.923Z,7.16
2017-12-26T07:00:46.901Z,7.13
2017-12-26T07:01:46.881Z,7.16
2017-12-26T07:02:46.858Z,7.10
2017-12-26T07:03:46.838Z,7.06
2017-12-26T07:04:46.823Z,7.07
2017-12-26T07:05:46.799Z,7.09
2017-12-26T07:06:46.778Z,6.99
2017-12-26T07:07:46.756Z,6.91
2017-12-26T07:08:46.739Z,7.06
2017-12-26T07:09:46.717Z,6.94
2017-12-26T07:10:46.694Z,6.91
2017-12-26T07:11:46.677Z,6.88
2017-12-26T07:12:46.653Z,6.79
2017-12-26T07:13:46.634Z,6.81
2017-12-26T07:14:46.615Z,6.81
2017-12-26T07:15:46.597Z,6.81
2017-12-26T07:16:46.569Z,6.81
2017-12-26T07:17:46.550Z,6.73
2017-12-26T07:18:46.528Z,6.79
2017-12-26T07:19:46.511Z,6.74
2017-12-26T07:20:46.487Z,6.79
2017-12-26T07:21:46.470Z,6.70
2017-12-26T07:22:46.448Z,6.74
2017-12-26T07:23:46.430Z,6.73
2017-12-26T07:24:46.411Z,6.70
2017-12-26T07:25:46.389Z,6.67
2017-12-26T07:26:46.366Z,6.62
2017-12-26T07:27:46.350Z,6.64
2017-12-26T07:28:46.321Z,6.58
2017-12-26T07:29:46.311Z,6.59
2017-12-26T07:30:46.286Z,6.61
2017-12-26T07:31:46.261Z,6.62
2017-12-26T07:32:46.239Z,6.58
2017-12-26T07:33:46.227Z,6.58
2017-12-26T07:34:46.202Z,6.59
2017-12-26T07:35:46.177Z,6.58
2017-12-26T07:36:46.153Z,6.58
2017-12-26T07:37:46.135Z,6.48
2017-12-26T07:38:46.114Z,6.48
2017-12-26T07:39:46.095Z,6.48
2017-12-26T07:40:46.076Z,6.46
2017-12-26T07:41:46.059Z,6.51
2017-12-26T07:42:46.038Z,6.40
2017-12-26T07:43:46.012Z,6.48
2017-12-26T07:44:45.990Z,6.41
2017-12-26T07:45:45.969Z,6.37
2017-12-26T07:46:45.952Z,6.40
2017-12-26T07:47:45.930Z,6.44
2017-12-26T07:48:45.910Z,6.38
2017-12-26T07:49:45.882Z,6.43
2017-12-26T07:50:45.868Z,6.49
2017-12-26T07:51:45.847Z,6.43
2017-12-26T07:52:45.830Z,6.40
2017-12-26T07:53:45.804Z,6.33
2017-12-26T07:54:45.781Z,6.38
2017-12-26T07:55:45.763Z,6.40
2017-12-26T07:56:45.738Z,6.40
2017-12-26T07:57:45.721Z,6.41
2017-12-26T07:58:45.698Z,6.38
2017-12-26T07:59:45.677Z,6.38
2017-12-26T08:00:45.664Z,6.40
2017-12-26T08:01:45.640Z,6.31
2017-12-26T08:02:45.619Z,6.31
2017-12-26T08:03:45.590Z,6.31
2017-12-26T08:04:45.572Z,6.28
2017-12-26T08:05:45.549Z,6.34
2017-12-26T08:06:45.529Z,6.27
2017-12-26T08:07:45.509Z,6.37
2017-12-26T08:08:45.487Z,6.28
2017-12-26T08:09:45.473Z,6.30
2017-12-26T08:10:45.458Z,6.27
2017-12-26T08:11:45.424Z,6.31
2017-12-26T08:12:45.412Z,6.36
2017-12-26T08:13:45.386Z,6.34
2017-12-26T08:14:45.363Z,6.30
2017-12-26T08:15:45.348Z,6.36
2017-12-26T08:16:45.320Z,6.37
2017-12-26T08:17:45.304Z,6.36
2017-12-26T08:18:45.290Z,6.30
2017-12-26T08:19:45.267Z,6.34
2017-12-26T08:20:45.239Z,6.34
2017-12-26T08:21:45.220Z,6.36
2017-12-26T08:22:45.195Z,6.31
2017-12-26T08:23:45.182Z,6.34
2017-12-26T08:24:45.155Z,6.25
2017-12-26T08:25:45.134Z,6.30
2017-12-26T08:26:45.118Z,6.17
2017-12-26T08:27:45.091Z,6.30
2017-12-26T08:28:45.070Z,6.27
2017-12-26T08:29:45.049Z,6.22
2017-12-26T08:30:45.033Z,6.25
2017-12-26T08:31:45.006Z,6.15
2017-12-26T08:32:44.984Z,6.19
2017-12-26T08:33:44.964Z,6.19
2017-12-26T08:34:44.943Z,6.18
2017-12-26T08:35:44.936Z,6.12
2017-12-26T08:36:44.904Z,6.04
2017-12-26T08:37:44.888Z,6.03
2017-12-26T08:38:44.861Z,6.08
2017-12-26T08:39:44.841Z,6.06
2017-12-26T08:40:44.817Z,6.15
2017-12-26T08:41:44.803Z,6.08
2017-12-26T08:42:44.777Z,6.08
2017-12-26T08:43:44.761Z,6.00
2017-12-26T08:44:44.734Z,6.04
2017-12-26T08:45:44.716Z,6.04
2017-12-26T08:46:44.695Z,6.03
2017-12-26T08:47:44.672Z,6.01
2017-12-26T08:48:44.655Z,5.91
2017-12-26T08:49:44.639Z,6.04
2017-12-26T08:50:44.607Z,5.99
2017-12-26T08:51:44.588Z,6.08
2017-12-26T08:52:44.565Z,6.06
2017-12-26T08:53:44.547Z,5.91
2017-12-26T08:54:44.526Z,5.94
2017-12-26T08:55:44.504Z,5.93
2017-12-26T08:56:44.488Z,5.93
2017-12-26T08:57:44.459Z,5.97
2017-12-26T08:58:44.440Z,5.96
2017-12-26T08:59:44.418Z,5.93
2017-12-26T09:00:44.399Z,5.86
2017-12-26T09:01:44.378Z,5.96
2017-12-26T09:02:44.358Z,5.91
2017-12-26T09:03:44.338Z,5.86
2017-12-26T09:04:44.319Z,5.86
2017-12-26T09:05:44.292Z,5.83
2017-12-26T09:06:44.275Z,5.91
2017-12-26T09:07:44.258Z,5.85
2017-12-26T09:08:44.230Z,5.90
2017-12-26T09:09:44.210Z,5.85
2017-12-26T09:10:44.187Z,5.89
2017-12-26T09:11:44.164Z,5.91
2017-12-26T09:12:44.149Z,5.91
2017-12-26T09:13:44.124Z,5.83
2017-12-26T09:14:44.118Z,5.86
2017-12-26T09:15:44.086Z,5.85
2017-12-26T09:16:44.062Z,5.78
2017-12-26T09:17:44.041Z,5.91
2017-12-26T09:18:44.019Z,5.83
2017-12-26T09:19:44.002Z,5.83
2017-12-26T09:20:43.980Z,5.89
2017-12-26T09:21:43.967Z,5.93
2017-12-26T09:22:43.946Z,5.75
2017-12-26T09:23:43.914Z,5.82
2017-12-26T09:24:43.895Z,5.91
2017-12-26T09:25:43.873Z,5.86
2017-12-26T09:26:43.855Z,5.83
2017-12-26T09:27:43.828Z,5.81
2017-12-26T09:28:43.808Z,5.79
2017-12-26T09:29:43.789Z,5.85
2017-12-26T09:30:43.769Z,5.86
2017-12-26T09:31:43.743Z,5.83
2017-12-26T09:32:43.724Z,5.83
2017-12-26T09:33:43.707Z,5.85
2017-12-26T09:34:43.693Z,5.90
2017-12-26T09:35:43.663Z,5.90
2017-12-26T09:36:43.640Z,5.94
2017-12-26T09:37:43.634Z,5.90
2017-12-26T09:38:43.599Z,5.96
2017-12-26T09:39:43.580Z,5.91
2017-12-26T09:40:43.605Z,5.94
2017-12-26T09:41:43.533Z,5.94
2017-12-26T09:42:43.517Z,5.89
2017-12-26T09:43:43.491Z,5.94
2017-12-26T09:44:43.471Z,5.93
2017-12-26T09:45:43.460Z,5.90
2017-12-26T09:46:43.432Z,5.85
2017-12-26T09:47:43.412Z,5.90
2017-12-26T09:48:43.387Z,5.91
2017-12-26T09:49:43.368Z,6.01
2017-12-26T09:50:43.348Z,5.97
2017-12-26T09:51:43.323Z,5.96
2017-12-26T09:52:43.309Z,5.94
2017-12-26T09:53:43.288Z,5.94
2017-12-26T09:54:43.260Z,6.00
2017-12-26T09:55:43.238Z,6.00
2017-12-26T09:56:43.223Z,6.08
2017-12-26T09:57:43.198Z,5.99
2017-12-26T09:58:43.177Z,6.06
2017-12-26T09:59:43.168Z,5.97
2017-12-26T10:00:43.132Z,6.01
2017-12-26T10:01:43.116Z,5.97
2017-12-26T10:02:43.102Z,6.03
2017-12-26T10:03:43.080Z,6.00
2017-12-26T10:04:43.054Z,6.01
2017-12-26T10:05:43.032Z,5.96
2017-12-26T10:06:43.010Z,6.03
2017-12-26T10:07:42.991Z,6.08
2017-12-26T10:08:42.968Z,5.99
2017-12-26T10:09:42.952Z,6.00
2017-12-26T10:10:42.927Z,6.00
2017-12-26T10:11:42.922Z,6.04
2017-12-26T10:12:42.885Z,6.00
2017-12-26T10:13:42.871Z,6.06
2017-12-26T10:14:42.850Z,5.97
2017-12-26T10:15:42.824Z,5.96
2017-12-26T10:16:42.799Z,5.94
2017-12-26T10:17:42.780Z,5.94
2017-12-26T10:18:42.760Z,5.93
2017-12-26T10:19:42.738Z,6.01
2017-12-26T10:20:42.719Z,6.01
2017-12-26T10:21:42.699Z,6.00
2017-12-26T10:22:42.674Z,5.99
2017-12-26T10:23:42.659Z,6.01
2017-12-26T10:24:42.644Z,5.96
2017-12-26T10:25:42.611Z,6.01
2017-12-26T10:26:42.600Z,6.03
2017-12-26T10:27:42.573Z,6.08
2017-12-26T10:28:42.549Z,6.08
2017-12-26T10:29:42.534Z,6.04
2017-12-26T10:30:42.506Z,6.00
2017-12-26T10:31:42.490Z,5.99
2017-12-26T10:32:42.467Z,6.06
2017-12-26T10:33:42.454Z,6.01
2017-12-26T10:34:42.430Z,6.03
2017-12-26T10:35:42.411Z,6.03
2017-12-26T10:36:42.380Z,6.08
2017-12-26T10:37:42.360Z,6.03
2017-12-26T10:38:42.339Z,6.19
2017-12-26T10:39:42.324Z,6.11
2017-12-26T10:40:42.304Z,6.12
2017-12-26T10:41:42.287Z,6.19
2017-12-26T10:42:42.258Z,6.21
2017-12-26T10:43:42.238Z,6.19
2017-12-26T10:44:42.214Z,6.21
2017-12-26T10:45:42.194Z,6.19
2017-12-26T10:46:42.177Z,6.19
2017-12-26T10:47:42.151Z,6.30
2017-12-26T10:48:42.138Z,6.14
2017-12-26T10:49:42.109Z,6.22
2017-12-26T10:50:42.090Z,6.30
2017-12-26T10:51:42.072Z,6.28
2017-12-26T10:52:42.051Z,6.22
2017-12-26T10:53:42.028Z,6.28
2017-12-26T10:54:42.004Z,6.30
2017-12-26T10:55:41.984Z,6.30
2017-12-26T10:56:41.968Z,6.36
2017-12-26T10:57:41.944Z,6.33
2017-12-26T10:58:41.921Z,6.30
2017-12-26T10:59:41.907Z,6.33
2017-12-26T11:00:41.880Z,6.30
2017-12-26T11:01:41.863Z,6.30
2017-12-26T11:02:41.844Z,6.33
2017-12-26T11:03:41.823Z,6.37
2017-12-26T11:04:41.800Z,6.33
2017-12-26T11:05:41.781Z,6.33
2017-12-26T11:06:41.755Z,6.34
2017-12-26T11:07:41.742Z,6.38
2017-12-26T11:08:41.717Z,6.37
2017-12-26T11:09:41.693Z,6.30
2017-12-26T11:10:41.673Z,6.38
2017-12-26T11:11:41.665Z,6.38
2017-12-26T11:12:41.632Z,6.44
2017-12-26T11:13:41.611Z,6.43
2017-12-26T11:14:41.589Z,6.37
2017-12-26T11:15:41.572Z,6.46
2017-12-26T11:16:41.548Z,6.44
2017-12-26T11:17:41.525Z,6.44
2017-12-26T11:18:41.509Z,6.43
2017-12-26T11:19:41.486Z,6.43
2017-12-26T11:20:41.461Z,6.43
2017-12-26T11:21:41.451Z,6.46
2017-12-26T11:22:41.420Z,6.51
2017-12-26T11:23:41.398Z,6.40
2017-12-26T11:24:41.382Z,6.40
2017-12-26T11:25:41.357Z,6.41
2017-12-26T11:26:41.339Z,6.44
2017-12-26T11:27:41.322Z,6.44
2017-12-26T11:28:41.295Z,6.46
2017-12-26T11:29:41.277Z,6.48
2017-12-26T11:30:41.257Z,6.40
2017-12-26T11:31:41.236Z,6.41
2017-12-26T11:32:41.214Z,6.52
2017-12-26T11:33:41.191Z,6.59
2017-12-26T11:34:41.172Z,6.59
2017-12-26T11:35:41.150Z,6.58
2017-12-26T11:36:41.128Z,6.69
2017-12-26T11:37:41.118Z,6.69
2017-12-26T11:38:41.089Z,6.74
2017-12-26T11:39:41.070Z,6.80
2017-12-26T11:40:41.045Z,6.73
2017-12-26T11:41:41.027Z,6.80
2017-12-26T11:42:41.008Z,6.70
2017-12-26T11:43:40.986Z,6.74
2017-12-26T11:44:40.960Z,6.81
2017-12-26T11:45:40.949Z,6.73
2017-12-26T11:46:40.921Z,6.76
2017-12-26T11:47:40.899Z,6.71
2017-12-26T11:48:40.885Z,6.71
2017-12-26T11:49:40.856Z,6.73
2017-12-26T11:50:40.842Z,6.73
2017-12-26T11:51:40.823Z,6.67
2017-12-26T11:52:40.800Z,6.62
2017-12-26T11:53:40.782Z,6.70
2017-12-26T11:54:40.765Z,6.74
2017-12-26T11:55:40.737Z,6.62
2017-12-26T11:56:40.714Z,6.62
2017-12-26T11:57:40.696Z,6.73
2017-12-26T11:58:40.672Z,6.70
2017-12-26T11:59:40.654Z,6.70
2017-12-26T12:00:40.631Z,6.71
2017-12-26T12:01:40.613Z,6.71
2017-12-26T12:02:40.592Z,6.77
2017-12-26T12:03:40.572Z,6.77
2017-12-26T12:04:40.553Z,6.71
2017-12-26T12:05:40.531Z,6.76
2017-12-26T12:06:40.513Z,6.81
2017-12-26T12:07:40.490Z,6.79
2017-12-26T12:08:40.473Z,6.80
2017-12-26T12:09:40.453Z,6.76
2017-12-26T12:10:40.430Z,6.85
2017-12-26T12:11:40.405Z,6.87
2017-12-26T12:12:40.389Z,6.74
2017-12-26T12:13:40.361Z,6.80
2017-12-26T12:14:40.344Z,6.79
2017-12-26T12:15:40.325Z,6.79
2017-12-26T12:16:40.302Z,6.89
2017-12-26T12:17:40.285Z,6.84
2017-12-26T12:18:40.267Z,6.80
2017-12-26T12:19:40.243Z,6.81
2017-12-26T12:20:40.219Z,6.79
2017-12-26T12:21:40.198Z,6.89
2017-12-26T12:22:40.176Z,6.80
2017-12-26T12:23:40.198Z,6.81
2017-12-26T12:24:40.139Z,6.89
2017-12-26T12:25:40.119Z,6.89
2017-12-26T12:26:40.101Z,6.94
2017-12-26T12:27:40.073Z,6.99
2017-12-26T12:28:40.059Z,7.05
2017-12-26T12:29:40.051Z,7.03
2017-12-26T12:30:40.021Z,7.09
2017-12-26T12:31:39.993Z,7.05
2017-12-26T12:32:39.971Z,7.12
2017-12-26T12:33:39.949Z,7.05
2017-12-26T12:34:39.939Z,7.09
2017-12-26T12:35:39.914Z,7.02
2017-12-26T12:36:39.889Z,7.12
2017-12-26T12:37:39.868Z,7.09
2017-12-26T12:38:39.858Z,7.03
2017-12-26T12:39:39.830Z,6.94
2017-12-26T12:40:39.806Z,6.97
2017-12-26T12:41:39.789Z,6.92
2017-12-26T12:42:39.763Z,6.95
2017-12-26T12:43:39.747Z,6.95
2017-12-26T12:44:39.723Z,6.89
2017-12-26T12:45:39.702Z,6.92
2017-12-26T12:46:39.686Z,6.91
2017-12-26T12:47:39.669Z,6.92
2017-12-26T12:48:39.642Z,6.89
2017-12-26T12:49:39.621Z,6.89
2017-12-26T12:50:39.605Z,6.85
2017-12-26T12:51:39.583Z,6.87
2017-12-26T12:52:39.560Z,6.84
2017-12-26T12:53:39.547Z,6.92
2017-12-26T12:54:39.527Z,6.97
2017-12-26T12:55:39.501Z,6.87
2017-12-26T12:56:39.538Z,6.81
2017-12-26T12:57:39.464Z,6.89
2017-12-26T12:58:39.437Z,6.81
2017-12-26T12:59:39.415Z,6.92
2017-12-26T13:00:39.403Z,6.87
2017-12-26T13:01:39.378Z,6.87
2017-12-26T13:02:39.356Z,6.89
2017-12-26T13:03:39.340Z,6.88
2017-12-26T13:04:39.335Z,6.84
2017-12-26T13:05:39.301Z,6.89
2017-12-26T13:06:39.270Z,6.88
2017-12-26T13:07:39.257Z,6.88
2017-12-26T13:08:39.233Z,6.85
2017-12-26T13:09:39.209Z,6.81
2017-12-26T13:10:39.200Z,6.77
2017-12-26T13:11:39.185Z,6.80
2017-12-26T13:12:39.160Z,6.79
2017-12-26T13:13:39.129Z,6.74
2017-12-26T13:14:39.107Z,6.73
2017-12-26T13:15:39.091Z,6.80
2017-12-26T13:16:39.068Z,6.76
2017-12-26T13:17:39.042Z,6.69
2017-12-26T13:18:39.024Z,6.80